Salida, CO (81201)

11:19 PM MDT on September 26, 2016 (GMT -0600)
CR 141 | | Change Station

Elev 7195 ft 38.54 °N, 106.02 °W | Updated 0 second ago

Clear
Clear
48.0 °F
Feels Like 46 °F
N
4.9
Wind Variable Wind from SW
Gusts 8.0 mph

Today
High -- | Low -- °F
--% Chance of Precip.
Yesterday
High -- | Low -- °F
Precip. -- in
Pressure 30.52 in
Visibility 10.0 miles
Clouds Clear
Windchill 46 °F
Dew Point 28 °F
Humidity 46%
Rainfall 0.00 in
Snow Depth Not available.
6:55 AM 6:53 PM
Waning Crescent, 14% visible
METAR KANK 270515Z AUTO 25006KT 10SM CLR 09/M03 A3052 RMK AO1 T00911027
Pressure 30.52 in
Visibility 10.0 miles
Clouds Clear
Windchill 46 °F
Dew Point 28 °F
Humidity 46%
Rainfall 0.00 in
Snow Depth Not available.
6:55 AM 6:53 PM
Waning Crescent, 14% visible
METAR KANK 270515Z AUTO 25006KT 10SM CLR 09/M03 A3052 RMK AO1 T00911027

10-Day Weather Forecast

Almanac

Astronomy

Sep. 26, 2016 Rise Set
Actual Time
Civil Twilight
Nautical Twilight
Astronomical Twilight
Moon
Length of Visible Light
Length of Day
Tomorrow will be .
, % of the Moon is Illuminated

Today's Extremes

State Highs State Lows

Community

WunderPhotos

Upload Photos

1,942,038 photos uploaded!

WunderBlog® & News

Nearby

Air Quality

  Air Quality AQ Index Pollutant
Not available.

Snow Depth

Station Depth Elevation

Earthquake Activity

City Distance Mag. Time & Date
Minimum magnitude displayed is 2.5.

Coastal Water Temperatures

Place Temperature

Stations

Nearby Weather Stations

Station Location Temp. Windchill Dew Point Humidity Wind Precip. Elev Updated Type
                   

Watches & Warnings

There are currently no watches in effect.